Time;durP1;ratioP1;P1;durP2;ratioP2;P2;SDS_P1;SDS_P2;PMS_P1;PMS_P2;Temp;Humidity;BMP_temperature;BMP_pressure;BME280_temperature;BME280_humidity;BME280_pressure;Samples;Min_cycle;Max_cycle;Signal;HPM_P1;HPM_P2
2021/01/26 00:03:04;;;;;;;41.57;19.40;;;;;;;2.92;80.92;99659.13;8540916;33;20937;-71
2021/01/26 00:08:07;;;;;;;40.90;16.00;;;;;;;3.13;80.00;99657.28;8539864;33;20949;-73
2021/01/26 00:13:11;;;;;;;41.57;17.40;;;;;;;3.12;80.53;99666.94;8558491;33;20237;-71
2021/01/26 00:18:13;;;;;;;30.63;14.27;;;;;;;3.12;80.06;99651.09;8533488;33;20450;-73
2021/01/26 00:23:17;;;;;;;38.13;15.10;;;;;;;3.16;80.23;99654.47;8533270;33;20294;-71
2021/01/26 00:28:21;;;;;;;38.10;13.40;;;;;;;3.05;80.59;99641.78;8532349;33;21141;-72
2021/01/26 00:33:24;;;;;;;26.10;9.93;;;;;;;3.18;80.37;99644.72;8556232;33;20516;-72
2021/01/26 00:38:26;;;;;;;38.03;16.00;;;;;;;3.24;80.28;99648.84;8535309;33;20468;-70
2021/01/26 00:43:29;;;;;;;19.13;8.97;;;;;;;2.97;81.15;99646.59;8541070;33;20192;-69
2021/01/26 00:48:32;;;;;;;38.80;16.07;;;;;;;3.15;81.21;99643.97;8542953;33;20214;-69
2021/01/26 00:53:34;;;;;;;43.57;17.73;;;;;;;3.37;80.63;99631.44;8539382;33;20202;-70
2021/01/26 00:58:44;;;;;;;43.70;18.10;;;;;;;3.38;80.58;99619.97;8537159;33;20418;-70
2021/01/26 01:03:49;;;;;;;47.33;19.30;;;;;;;3.14;81.45;99618.53;8540248;33;20408;-70
2021/01/26 01:08:51;;;;;;;52.13;21.07;;;;;;;3.38;81.15;99598.84;8538322;33;20568;-70
2021/01/26 01:13:54;;;;;;;40.40;15.63;;;;;;;3.14;81.57;99618.53;8537927;33;20310;-71
2021/01/26 01:18:57;;;;;;;48.23;18.13;;;;;;;3.30;81.13;99606.28;8538636;33;21334;-71
2021/01/26 01:23:59;;;;;;;48.43;20.10;;;;;;;3.38;81.54;99598.84;8537264;33;20681;-71
2021/01/26 01:29:03;;;;;;;38.23;16.90;;;;;;;3.40;81.58;99586.44;8537314;33;20183;-73
2021/01/26 01:34:06;;;;;;;26.87;12.87;;;;;;;3.29;81.28;99584.31;8538869;33;21155;-71
2021/01/26 01:39:09;;;;;;;42.13;19.57;;;;;;;3.30;81.76;99579.88;8542943;33;20282;-73
2021/01/26 01:44:13;;;;;;;40.43;17.03;;;;;;;3.25;81.53;99569.56;8548263;33;20186;-73
2021/01/26 01:49:21;;;;;;;32.60;12.90;;;;;;;3.42;80.47;99562.56;8540559;33;20160;-73
2021/01/26 01:54:30;;;;;;;27.47;13.33;;;;;;;3.18;81.32;99560.25;8539907;33;21152;-73
2021/01/26 01:59:39;;;;;;;30.10;12.97;;;;;;;3.05;81.25;99553.84;8539287;33;20418;-73
2021/01/26 02:04:43;;;;;;;30.27;14.10;;;;;;;3.06;80.51;99545.84;8544238;33;20580;-73
2021/01/26 02:09:45;;;;;;;30.60;13.63;;;;;;;2.94;81.61;99542.97;8542769;33;20136;-72
2021/01/26 02:14:54;;;;;;;39.87;16.10;;;;;;;2.90;81.80;99548.38;8541270;33;20542;-72
2021/01/26 02:20:44;;;;;;;14.47;6.60;;;;;;;2.72;82.11;99540.53;8541141;33;20203;-73
2021/01/26 02:26:33;;;;;;;24.70;12.23;;;;;;;2.76;81.88;99536.81;8529704;33;21672;-72
2021/01/26 02:31:56;;;;;;;23.77;11.63;;;;;;;2.87;81.76;99547.69;8483191;33;20641;-72
2021/01/26 02:37:47;;;;;;;32.90;14.37;;;;;;;2.96;81.92;99549.84;8525460;33;20919;-73
2021/01/26 02:43:10;;;;;;;17.97;9.03;;;;;;;2.85;82.81;99545.13;8560982;33;20510;-73
2021/01/26 02:48:47;;;;;;;31.20;14.17;;;;;;;2.93;82.85;99542.09;8539410;33;20447;-73
2021/01/26 02:53:59;;;;;;;17.30;9.53;;;;;;;3.02;83.20;99533.75;8441014;33;20468;-73
2021/01/26 02:59:15;;;;;;;24.70;9.70;;;;;;;3.03;83.60;99553.91;8524954;33;20702;-73
2021/01/26 03:04:23;;;;;;;24.47;11.20;;;;;;;3.07;83.67;99567.81;8533473;33;20437;-73
2021/01/26 03:09:33;;;;;;;20.97;10.37;;;;;;;3.06;83.22;99566.97;8535270;33;20415;-73
2021/01/26 03:14:42;;;;;;;19.30;9.27;;;;;;;3.14;83.47;99571.03;8537636;33;20469;-73
2021/01/26 03:19:50;;;;;;;17.57;7.10;;;;;;;3.39;82.63;99574.13;8541947;33;20243;-73
2021/01/26 03:24:56;;;;;;;14.33;7.13;;;;;;;3.24;83.31;99574.94;8540510;33;20152;-73
2021/01/26 03:30:00;;;;;;;16.53;6.37;;;;;;;3.20;83.20;99583.91;8540966;33;22059;-71
2021/01/26 03:35:04;;;;;;;34.50;9.50;;;;;;;3.15;83.55;99580.63;8542417;33;20995;-71
2021/01/26 03:40:09;;;;;;;18.30;8.63;;;;;;;3.34;83.74;99584.91;8543492;33;21043;-71
2021/01/26 03:45:13;;;;;;;13.33;7.07;;;;;;;3.28;83.81;99600.22;8545948;33;20963;-71
2021/01/26 03:50:32;;;;;;;11.33;5.37;;;;;;;3.35;83.84;99585.81;8541482;33;20857;-72
2021/01/26 03:55:44;;;;;;;6.67;4.13;;;;;;;3.12;84.12;99600.97;8540721;33;20247;-71
2021/01/26 04:00:56;;;;;;;18.80;5.63;;;;;;;3.31;83.86;99595.63;8540857;33;20260;-72
2021/01/26 04:06:10;;;;;;;11.80;5.87;;;;;;;3.29;84.00;99601.91;8539433;33;20284;-72
2021/01/26 04:11:18;;;;;;;10.27;4.53;;;;;;;3.24;84.01;99607.44;8540855;33;20255;-72
2021/01/26 04:16:26;;;;;;;10.17;5.27;;;;;;;3.41;84.49;99605.75;8541053;33;20187;-72
2021/01/26 04:21:32;;;;;;;7.57;2.97;;;;;;;3.32;84.27;99620.28;8542391;33;20751;-72
2021/01/26 04:26:36;;;;;;;8.83;4.73;;;;;;;3.61;83.76;99617.97;8541061;33;20885;-72
2021/01/26 04:31:39;;;;;;;4.03;2.80;;;;;;;3.47;84.07;99630.06;8541623;33;20455;-72
2021/01/26 04:36:42;;;;;;;3.53;2.57;;;;;;;3.52;84.27;99625.41;8539898;33;20501;-74
2021/01/26 04:41:53;;;;;;;7.03;3.83;;;;;;;3.39;84.53;99626.94;8542009;33;20261;-73
2021/01/26 04:47:09;;;;;;;5.07;3.07;;;;;;;3.62;84.37;99639.03;8546373;33;20428;-73
2021/01/26 04:52:21;;;;;;;6.70;3.57;;;;;;;3.85;83.41;99655.50;8555555;33;20531;-73
2021/01/26 04:57:44;;;;;;;4.53;3.07;;;;;;;3.85;83.35;99655.50;8539556;33;20390;-71
2021/01/26 05:03:25;;;;;;;5.53;2.90;;;;;;;3.57;84.30;99654.25;8538505;33;20566;-70
2021/01/26 05:08:32;;;;;;;4.03;2.77;;;;;;;3.97;83.26;99668.94;8536841;33;20827;-71
2021/01/26 05:13:39;;;;;;;4.17;2.67;;;;;;;4.04;82.98;99671.28;8539876;33;20218;-70
2021/01/26 05:18:48;;;;;;;5.73;2.60;;;;;;;3.86;84.24;99684.47;8542360;33;20904;-73
2021/01/26 05:23:58;;;;;;;4.90;2.77;;;;;;;3.92;84.46;99701.81;8544525;33;20405;-71
2021/01/26 05:29:02;;;;;;;7.40;3.57;;;;;;;4.19;83.15;99718.06;8543138;33;20528;-71
2021/01/26 05:34:09;;;;;;;3.97;2.67;;;;;;;4.00;82.73;99724.31;8554070;33;20518;-71
2021/01/26 05:39:17;;;;;;;4.77;2.43;;;;;;;3.76;83.18;99726.38;8547060;33;20420;-71
2021/01/26 05:44:21;;;;;;;2.80;2.17;;;;;;;3.93;83.43;99748.47;8544108;33;21003;-71
2021/01/26 05:49:35;;;;;;;2.50;2.13;;;;;;;3.94;82.99;99756.31;8552490;33;20202;-71
2021/01/26 05:54:48;;;;;;;2.87;2.00;;;;;;;3.78;84.31;99769.44;8558781;33;21327;-71
2021/01/26 05:59:50;;;;;;;4.37;2.97;;;;;;;4.11;83.71;99776.59;8558056;33;20141;-71
2021/01/26 06:05:07;;;;;;;4.63;2.70;;;;;;;4.28;83.37;99791.66;8555890;33;20437;-71
2021/01/26 06:10:18;;;;;;;5.43;2.70;;;;;;;4.20;83.06;99807.91;8544455;33;20354;-70
2021/01/26 06:15:24;;;;;;;4.47;3.10;;;;;;;4.10;83.13;99819.00;8545188;33;20947;-70
2021/01/26 06:20:28;;;;;;;7.00;3.30;;;;;;;4.03;83.09;99829.00;8545552;33;20421;-70
2021/01/26 06:25:34;;;;;;;8.03;3.80;;;;;;;4.01;82.92;99846.75;8554023;33;20783;-70
2021/01/26 06:30:53;;;;;;;7.63;4.00;;;;;;;4.03;82.92;99866.00;8564597;33;20152;-70
2021/01/26 06:36:14;;;;;;;6.00;3.73;;;;;;;3.95;82.78;99884.91;8563001;33;20549;-70
2021/01/26 06:41:34;;;;;;;9.10;4.87;;;;;;;3.83;83.16;99901.31;8561796;33;20187;-70
2021/01/26 06:46:58;;;;;;;8.73;4.97;;;;;;;3.79;82.40;99918.25;8549984;33;20604;-70
2021/01/26 06:52:32;;;;;;;9.17;4.60;;;;;;;3.58;83.05;99927.16;8562131;33;21080;-70
2021/01/26 06:58:06;;;;;;;10.93;4.67;;;;;;;3.63;82.72;99941.03;8558506;33;20763;-70
2021/01/26 07:03:37;;;;;;;8.83;5.50;;;;;;;3.64;82.33;99951.50;8559980;33;20693;-70
2021/01/26 07:09:15;;;;;;;15.10;6.03;;;;;;;3.85;82.46;99972.63;8561650;33;20248;-70
2021/01/26 07:14:33;;;;;;;16.23;6.97;;;;;;;3.95;82.34;99980.06;8566643;33;20613;-70
2021/01/26 07:20:03;;;;;;;25.67;10.90;;;;;;;3.99;82.12;99996.63;8588632;33;20278;-71
2021/01/26 07:25:23;;;;;;;27.40;11.37;;;;;;;3.99;82.41;100015.13;8562875;33;20623;-70
2021/01/26 07:30:30;;;;;;;29.27;11.93;;;;;;;3.84;82.31;100021.09;8561173;33;20279;-70
2021/01/26 07:35:38;;;;;;;30.03;13.13;;;;;;;3.93;82.10;100025.97;8561137;33;20240;-70
2021/01/26 07:40:52;;;;;;;29.90;12.13;;;;;;;3.93;81.63;100039.19;8560696;33;20496;-70
2021/01/26 07:46:00;;;;;;;37.73;14.93;;;;;;;3.94;82.02;100051.47;8523636;33;20580;-70
2021/01/26 07:51:11;;;;;;;37.00;14.73;;;;;;;3.90;82.41;100068.41;8509109;33;20187;-69
2021/01/26 07:56:23;;;;;;;36.13;14.67;;;;;;;3.73;82.24;100088.50;8509532;33;20534;-69
2021/01/26 08:01:28;;;;;;;37.93;14.93;;;;;;;3.59;82.55;100103.22;8535104;33;21865;-70
2021/01/26 08:06:57;;;;;;;34.70;14.83;;;;;;;3.69;82.27;100101.91;8555964;33;20444;-69
2021/01/26 08:12:04;;;;;;;39.03;13.90;;;;;;;3.58;82.00;100122.63;8563352;33;21003;-70
2021/01/26 08:17:11;;;;;;;32.80;12.77;;;;;;;3.43;82.46;100116.19;8563603;33;20456;-69
2021/01/26 08:22:22;;;;;;;33.80;12.50;;;;;;;3.68;82.11;100129.25;8547370;33;20448;-70
2021/01/26 08:27:58;;;;;;;26.63;10.60;;;;;;;3.81;81.88;100141.00;8561437;33;20692;-70
2021/01/26 08:33:11;;;;;;;27.80;11.57;;;;;;;3.73;81.82;100145.75;8549484;33;20880;-69
2021/01/26 08:38:47;;;;;;;24.60;9.87;;;;;;;3.71;81.53;100158.19;8555380;33;20261;-70
2021/01/26 08:43:50;;;;;;;23.10;10.60;;;;;;;3.99;81.52;100165.78;8560425;33;20182;-70
2021/01/26 08:48:58;;;;;;;22.80;8.87;;;;;;;3.74;81.10;100171.28;8560847;33;20416;-70
2021/01/26 08:54:01;;;;;;;21.47;10.30;;;;;;;4.07;81.63;100179.53;8583637;33;20430;-70
2021/01/26 08:59:07;;;;;;;23.03;9.77;;;;;;;4.13;81.00;100189.00;8551440;33;20183;-70
2021/01/26 09:04:40;;;;;;;23.10;11.07;;;;;;;4.28;80.84;100193.63;8545362;33;20160;-70
2021/01/26 09:09:52;;;;;;;26.47;10.00;;;;;;;3.99;80.13;100210.72;8546153;33;21459;-70
2021/01/26 09:15:01;;;;;;;24.30;11.27;;;;;;;4.14;80.15;100220.66;8544437;33;20151;-69
2021/01/26 09:20:11;;;;;;;24.30;9.70;;;;;;;4.21;80.42;100239.75;8542995;33;21967;-69
2021/01/26 09:25:19;;;;;;;23.93;9.67;;;;;;;4.37;80.06;100232.03;8540489;33;20517;-69
2021/01/26 09:30:25;;;;;;;16.93;9.03;;;;;;;4.24;79.81;100245.75;8534088;33;20935;-69
2021/01/26 09:35:35;;;;;;;21.73;8.77;;;;;;;3.94;80.16;100253.22;8558032;33;20425;-69
2021/01/26 09:40:40;;;;;;;24.07;9.20;;;;;;;3.89;79.95;100252.53;8556445;33;20410;-69
2021/01/26 09:45:44;;;;;;;19.37;9.47;;;;;;;4.18;80.09;100271.63;8556391;33;20425;-69
2021/01/26 09:50:47;;;;;;;20.27;8.47;;;;;;;4.16;79.94;100279.59;8581674;33;20546;-70
2021/01/26 09:55:54;;;;;;;21.97;9.53;;;;;;;3.89;80.11;100291.34;8563423;33;20427;-70
2021/01/26 10:00:59;;;;;;;23.50;9.40;;;;;;;3.56;80.27;100304.97;8565109;33;20319;-69
2021/01/26 10:06:01;;;;;;;27.63;11.70;;;;;;;3.59;80.31;100304.00;8562809;33;20656;-69
2021/01/26 10:11:18;;;;;;;29.37;11.13;;;;;;;3.83;80.27;100303.00;8549094;33;20448;-70
2021/01/26 10:16:32;;;;;;;26.73;10.70;;;;;;;4.05;79.91;100332.06;8545188;33;20433;-69
2021/01/26 10:21:35;;;;;;;26.60;10.50;;;;;;;4.12;80.08;100332.72;8545454;33;20484;-69
2021/01/26 10:26:39;;;;;;;23.53;10.17;;;;;;;4.13;79.79;100329.97;8541948;33;20424;-70
2021/01/26 10:31:47;;;;;;;24.87;10.03;;;;;;;4.19;79.99;100342.94;8541099;33;20229;-69
2021/01/26 10:36:51;;;;;;;27.17;10.47;;;;;;;4.20;80.06;100343.84;8542971;33;22065;-70
2021/01/26 10:42:01;;;;;;;29.40;11.67;;;;;;;4.19;79.73;100348.22;8517516;33;20650;-69
2021/01/26 10:47:22;;;;;;;29.23;11.40;;;;;;;4.19;79.80;100350.03;8483327;33;20429;-69
2021/01/26 10:52:40;;;;;;;24.13;9.83;;;;;;;4.15;79.26;100346.66;8500025;33;20825;-69
2021/01/26 10:57:44;;;;;;;20.57;10.93;;;;;;;4.24;79.32;100356.00;8501225;33;20542;-69
2021/01/26 11:02:49;;;;;;;27.87;11.43;;;;;;;4.34;79.28;100365.28;8484064;33;20419;-69
2021/01/26 11:07:52;;;;;;;25.33;10.93;;;;;;;4.58;79.70;100371.34;8481911;33;20420;-69
2021/01/26 11:12:54;;;;;;;23.67;10.80;;;;;;;4.57;79.28;100374.03;8490962;33;20188;-70
2021/01/26 11:17:58;;;;;;;23.93;10.60;;;;;;;4.33;78.82;100379.41;8507835;33;20420;-70
2021/01/26 11:23:00;;;;;;;25.17;11.23;;;;;;;4.43;78.49;100382.53;8515320;33;20618;-69
2021/01/26 11:28:05;;;;;;;23.33;9.97;;;;;;;4.63;77.83;100381.69;8535267;33;20470;-70
2021/01/26 11:33:08;;;;;;;25.75;11.48;;;;;;;4.88;78.22;100386.78;8499658;33;20415;-70
2021/01/26 11:38:11;;;;;;;24.23;9.63;;;;;;;4.94;77.69;100394.50;8480377;33;22059;-69
2021/01/26 11:43:14;;;;;;;27.08;12.00;;;;;;;5.07;76.74;100400.09;8503232;33;20428;-70
2021/01/26 11:48:18;;;;;;;27.00;10.77;;;;;;;5.37;76.44;100404.97;8477856;33;20501;-70
2021/01/26 11:53:21;;;;;;;21.43;9.67;;;;;;;5.32;76.24;100405.16;8476799;33;20431;-70
2021/01/26 11:58:24;;;;;;;27.42;11.45;;;;;;;6.73;76.41;100403.81;8475105;33;20155;-70
2021/01/26 12:03:28;;;;;;;26.20;12.00;;;;;;;7.10;73.65;100401.91;8476359;33;20441;-70
2021/01/26 12:08:31;;;;;;;25.75;11.35;;;;;;;7.12;71.34;100406.19;8476023;33;20709;-70
2021/01/26 12:13:34;;;;;;;23.95;10.73;;;;;;;7.47;68.11;100400.81;8481131;33;20184;-70
2021/01/26 12:18:37;;;;;;;21.67;9.40;;;;;;;7.70;65.37;100398.72;8476777;33;21087;-70
2021/01/26 12:23:42;;;;;;;18.42;10.23;;;;;;;8.92;67.03;100416.66;8476360;33;20516;-70
2021/01/26 12:28:45;;;;;;;18.02;8.80;;;;;;;7.95;68.28;100409.72;8475339;33;20604;-70
2021/01/26 12:33:49;;;;;;;16.00;8.43;;;;;;;7.45;71.65;100418.66;8474416;33;20844;-70
2021/01/26 12:38:51;;;;;;;17.23;9.27;;;;;;;6.87;68.28;100405.75;8481432;33;20423;-70
2021/01/26 12:43:53;;;;;;;17.40;7.88;;;;;;;7.53;72.30;100418.25;8482420;33;21858;-70
2021/01/26 12:48:56;;;;;;;16.73;7.95;;;;;;;7.89;68.69;100403.88;8481851;33;21518;-70
2021/01/26 12:53:59;;;;;;;14.90;8.25;;;;;;;8.98;62.65;100397.63;8481091;33;20521;-70
2021/01/26 12:59:01;;;;;;;14.95;7.82;;;;;;;7.90;68.94;100398.47;8479654;33;20428;-70
2021/01/26 13:04:04;;;;;;;16.20;7.88;;;;;;;7.44;67.77;100403.66;8477492;33;20626;-70
2021/01/26 13:09:07;;;;;;;14.07;7.63;;;;;;;7.94;69.19;100405.34;8475986;33;20412;-71
2021/01/26 13:14:13;;;;;;;13.73;7.13;;;;;;;7.97;63.54;100413.16;8471613;33;20466;-71
2021/01/26 13:19:21;;;;;;;11.95;6.70;;;;;;;7.18;67.65;100423.59;8469446;33;20540;-70
2021/01/26 13:24:23;;;;;;;11.90;6.70;;;;;;;6.57;68.93;100426.75;8467581;33;20602;-70
2021/01/26 13:29:26;;;;;;;12.23;6.50;;;;;;;5.65;69.42;100434.63;8469831;33;20259;-70
2021/01/26 13:34:29;;;;;;;17.92;7.72;;;;;;;5.99;69.13;100435.72;8476405;33;20605;-70
2021/01/26 13:39:32;;;;;;;15.38;7.68;;;;;;;6.84;67.52;100435.13;8477947;33;20420;-70
2021/01/26 13:44:37;;;;;;;11.55;6.97;;;;;;;7.35;67.09;100434.25;8476168;33;20555;-70
2021/01/26 13:49:41;;;;;;;14.55;7.80;;;;;;;6.46;68.67;100444.03;8477809;33;20464;-70
2021/01/26 13:54:44;;;;;;;19.92;8.52;;;;;;;6.85;71.10;100444.81;8477518;33;20188;-70
2021/01/26 13:59:47;;;;;;;15.30;7.85;;;;;;;6.23;68.78;100455.78;8479134;33;21923;-69
2021/01/26 14:04:50;;;;;;;15.10;8.18;;;;;;;6.26;70.70;100459.22;8488166;33;20398;-70
2021/01/26 14:10:01;;;;;;;14.48;8.07;;;;;;;5.75;69.95;100473.00;8496493;33;20185;-69
2021/01/26 14:15:08;;;;;;;14.50;7.82;;;;;;;5.55;70.55;100476.56;8491119;33;21002;-70
2021/01/26 14:20:15;;;;;;;12.95;7.78;;;;;;;5.58;71.35;100475.56;8500119;33;20622;-70
2021/01/26 14:25:19;;;;;;;11.85;5.90;;;;;;;5.27;70.69;100481.38;8508058;33;20441;-69
2021/01/26 14:30:25;;;;;;;14.27;7.07;;;;;;;5.72;70.84;100489.06;8529408;33;20530;-70
2021/01/26 14:35:32;;;;;;;13.73;7.88;;;;;;;6.11;71.04;100489.97;8504001;33;20485;-70
2021/01/26 14:40:34;;;;;;;17.98;7.18;;;;;;;5.64;69.60;100493.84;8505166;33;20234;-70
2021/01/26 14:45:37;;;;;;;14.45;7.93;;;;;;;6.14;72.13;100487.19;8503217;33;20673;-70
2021/01/26 14:50:40;;;;;;;13.48;8.98;;;;;;;6.71;69.45;100492.44;8497537;33;20859;-70
2021/01/26 14:55:42;;;;;;;14.13;7.95;;;;;;;6.93;69.43;100495.72;8493648;33;20197;-70
2021/01/26 15:00:45;;;;;;;14.60;7.47;;;;;;;6.22;68.33;100498.28;8505217;33;20439;-70
2021/01/26 15:05:48;;;;;;;14.20;7.38;;;;;;;5.98;68.46;100506.47;8499771;33;20411;-70
2021/01/26 15:10:51;;;;;;;15.60;8.35;;;;;;;6.09;69.74;100513.94;8490701;33;20608;-70
2021/01/26 15:15:53;;;;;;;14.68;8.65;;;;;;;5.82;70.31;100516.03;8490063;33;20592;-70
2021/01/26 15:20:57;;;;;;;17.90;8.48;;;;;;;5.84;70.39;100514.16;8489947;33;21029;-70
2021/01/26 15:25:59;;;;;;;18.23;9.02;;;;;;;5.77;70.92;100516.22;8489639;33;20145;-70
2021/01/26 15:31:02;;;;;;;16.67;8.32;;;;;;;5.71;71.97;100526.25;8491298;33;20215;-69
2021/01/26 15:36:06;;;;;;;19.30;8.93;;;;;;;5.78;71.13;100532.97;8503040;33;20423;-69
2021/01/26 15:41:10;;;;;;;14.60;7.45;;;;;;;5.81;72.46;100532.84;8502839;33;20176;-69
2021/01/26 15:46:12;;;;;;;11.15;7.03;;;;;;;5.50;71.98;100542.16;8503254;33;20164;-71
2021/01/26 15:51:16;;;;;;;13.93;7.10;;;;;;;5.60;72.26;100544.41;8504811;33;20473;-71
2021/01/26 15:56:18;;;;;;;14.05;8.00;;;;;;;5.38;72.37;100545.34;8502112;33;20264;-71
2021/01/26 16:01:21;;;;;;;15.05;7.35;;;;;;;5.51;72.63;100562.44;8507521;33;20656;-71
2021/01/26 16:06:24;;;;;;;14.10;7.05;;;;;;;5.45;72.50;100557.38;8508448;33;20161;-71
2021/01/26 16:11:27;;;;;;;12.52;7.22;;;;;;;5.41;72.71;100562.91;8509154;33;20418;-69
2021/01/26 16:16:29;;;;;;;12.07;6.50;;;;;;;5.10;72.50;100569.47;8516182;33;20145;-69
2021/01/26 16:21:33;;;;;;;10.40;5.35;;;;;;;5.09;72.40;100565.09;8525193;33;20463;-69
2021/01/26 16:26:35;;;;;;;12.93;6.57;;;;;;;5.00;72.31;100568.13;8536061;33;20351;-70
2021/01/26 16:31:38;;;;;;;12.37;4.90;;;;;;;4.92;72.61;100570.22;8525716;33;21157;-70
2021/01/26 16:36:42;;;;;;;8.75;4.72;;;;;;;4.87;72.75;100576.56;8513450;33;20454;-70
2021/01/26 16:41:44;;;;;;;9.50;5.10;;;;;;;4.90;72.37;100568.50;8533226;33;20231;-70
2021/01/26 16:46:46;;;;;;;10.90;5.87;;;;;;;4.97;73.23;100574.41;8512763;33;20230;-70
2021/01/26 16:51:50;;;;;;;8.73;4.10;;;;;;;4.94;72.60;100571.00;8514775;33;20438;-70
2021/01/26 16:56:53;;;;;;;9.67;5.43;;;;;;;4.99;73.36;100576.97;8534002;33;20176;-70
2021/01/26 17:01:55;;;;;;;10.60;6.00;;;;;;;4.98;73.15;100576.13;8569775;33;20496;-70
2021/01/26 17:06:58;;;;;;;10.97;6.73;;;;;;;4.71;73.50;100585.19;8566342;33;20143;-70
2021/01/26 17:12:01;;;;;;;14.13;6.97;;;;;;;4.84;73.52;100579.34;8557449;33;21296;-70
2021/01/26 17:17:03;;;;;;;12.23;6.03;;;;;;;4.83;73.59;100577.63;8558842;33;20282;-70
2021/01/26 17:22:07;;;;;;;15.70;6.83;;;;;;;4.88;73.86;100580.06;8557631;33;20507;-70
2021/01/26 17:27:10;;;;;;;14.47;7.90;;;;;;;4.95;73.82;100576.25;8520265;33;20437;-70
2021/01/26 17:32:12;;;;;;;11.48;6.68;;;;;;;4.87;74.15;100571.25;8517249;33;21869;-69
2021/01/26 17:37:16;;;;;;;17.33;7.77;;;;;;;4.83;73.88;100577.63;8543455;33;20439;-70
2021/01/26 17:42:20;;;;;;;15.27;8.03;;;;;;;4.92;73.90;100580.81;8540150;33;20403;-69
2021/01/26 17:47:22;;;;;;;16.73;9.00;;;;;;;4.88;73.31;100585.34;8514271;33;20420;-69
2021/01/26 17:52:26;;;;;;;21.60;9.30;;;;;;;4.92;73.88;100586.97;8516130;33;20447;-70
2021/01/26 17:57:31;;;;;;;18.70;9.90;;;;;;;4.99;73.69;100572.56;8514510;33;20450;-70
2021/01/26 18:02:34;;;;;;;21.90;12.27;;;;;;;5.02;74.34;100579.50;8533922;33;20192;-70
2021/01/26 18:07:38;;;;;;;18.63;8.90;;;;;;;5.07;73.86;100585.47;8509461;33;20573;-71
2021/01/26 18:12:42;;;;;;;19.47;9.73;;;;;;;5.08;74.48;100587.22;8514664;33;20706;-70
2021/01/26 18:17:44;;;;;;;20.57;10.40;;;;;;;5.04;74.28;100589.13;8510253;33;20431;-71
2021/01/26 18:22:48;;;;;;;21.33;10.90;;;;;;;5.02;74.13;100583.03;8514094;33;20195;-71
2021/01/26 18:27:51;;;;;;;16.50;9.30;;;;;;;4.93;74.12;100595.78;8535827;33;20436;-71
2021/01/26 18:32:54;;;;;;;20.37;9.00;;;;;;;4.86;74.01;100590.72;8509396;33;20415;-69
2021/01/26 18:37:59;;;;;;;20.27;9.50;;;;;;;5.04;74.44;100594.41;8508146;33;20171;-70
2021/01/26 18:43:03;;;;;;;20.70;10.13;;;;;;;5.09;74.97;100594.22;8531941;33;20965;-70
2021/01/26 18:48:06;;;;;;;22.33;9.82;;;;;;;4.99;74.52;100603.47;8547960;33;20462;-70
2021/01/26 18:53:11;;;;;;;19.30;10.00;;;;;;;4.84;74.50;100602.31;8524417;33;20533;-71
2021/01/26 18:58:13;;;;;;;19.63;10.10;;;;;;;4.77;74.42;100593.75;8519896;33;20153;-70
2021/01/26 19:03:17;;;;;;;18.63;9.47;;;;;;;4.74;74.99;100588.56;8536763;33;20472;-70
2021/01/26 19:08:20;;;;;;;18.50;10.33;;;;;;;4.64;74.45;100590.72;8494758;33;20179;-70
2021/01/26 19:13:24;;;;;;;18.43;9.97;;;;;;;4.64;74.63;100589.88;8516927;33;20467;-70
2021/01/26 19:18:26;;;;;;;19.30;10.57;;;;;;;4.59;74.77;100591.81;8487685;33;21376;-71
2021/01/26 19:23:30;;;;;;;20.80;11.20;;;;;;;4.61;75.01;100592.63;8524734;33;21023;-71
2021/01/26 19:28:33;;;;;;;22.90;11.00;;;;;;;4.62;75.31;100592.56;8537502;33;20637;-70
2021/01/26 19:33:36;;;;;;;26.50;10.90;;;;;;;4.78;75.28;100595.47;8539702;33;20841;-72
2021/01/26 19:38:40;;;;;;;25.90;11.10;;;;;;;4.84;74.66;100595.22;8540948;33;20237;-73
2021/01/26 19:43:44;;;;;;;20.50;10.60;;;;;;;4.84;74.62;100584.63;8539895;33;20141;-73
2021/01/26 19:48:46;;;;;;;19.80;10.67;;;;;;;4.93;74.65;100579.88;8543500;33;20536;-72
2021/01/26 19:53:51;;;;;;;16.37;9.53;;;;;;;4.96;74.83;100582.41;8542610;33;21069;-72
2021/01/26 19:58:55;;;;;;;20.50;10.23;;;;;;;5.07;74.59;100586.38;8542633;33;20207;-72
2021/01/26 20:03:57;;;;;;;24.73;11.53;;;;;;;5.15;74.71;100585.16;8542738;33;20152;-71
2021/01/26 20:09:01;;;;;;;17.37;9.73;;;;;;;5.10;74.78;100580.06;8565250;33;20565;-72
2021/01/26 20:14:03;;;;;;;24.67;11.18;;;;;;;5.15;75.08;100582.53;8487917;33;20415;-71
2021/01/26 20:19:06;;;;;;;22.43;11.17;;;;;;;5.09;75.06;100581.84;8534290;33;20405;-71
2021/01/26 20:24:10;;;;;;;20.73;10.57;;;;;;;5.19;75.31;100582.34;8545586;33;20549;-72
2021/01/26 20:29:13;;;;;;;20.73;10.35;;;;;;;5.21;74.92;100588.44;8544417;33;20180;-72
2021/01/26 20:34:15;;;;;;;17.10;9.70;;;;;;;5.04;75.62;100586.47;8529762;33;20526;-71
2021/01/26 20:39:18;;;;;;;15.13;8.02;;;;;;;4.79;76.62;100588.38;8484219;33;20707;-70
2021/01/26 20:44:21;;;;;;;17.97;8.97;;;;;;;4.96;76.61;100593.00;8481194;33;20404;-69
2021/01/26 20:49:25;;;;;;;20.00;9.63;;;;;;;5.23;75.88;100598.97;8480498;33;20188;-70
2021/01/26 20:54:29;;;;;;;19.47;9.10;;;;;;;5.20;76.23;100589.34;8476726;33;20440;-70
2021/01/26 20:59:31;;;;;;;17.60;8.82;;;;;;;5.07;76.70;100585.47;8479983;33;20430;-71
2021/01/26 21:04:33;;;;;;;14.13;7.73;;;;;;;5.15;76.73;100587.81;8481510;33;20156;-70
2021/01/26 21:09:37;;;;;;;17.30;9.00;;;;;;;5.02;77.37;100587.44;8502157;33;21044;-70
2021/01/26 21:14:40;;;;;;;22.43;9.93;;;;;;;5.21;77.48;100583.16;8478849;33;21198;-71
2021/01/26 21:19:42;;;;;;;19.50;10.00;;;;;;;5.13;77.35;100588.75;8479066;33;20426;-71
2021/01/26 21:24:46;;;;;;;15.83;9.03;;;;;;;4.82;79.46;100591.75;8477929;33;20191;-72
2021/01/26 21:29:48;;;;;;;19.43;9.87;;;;;;;4.82;80.01;100583.81;8477163;33;20243;-70
2021/01/26 21:34:51;;;;;;;20.50;10.67;;;;;;;4.78;80.78;100582.22;8470547;33;21929;-70
2021/01/26 21:39:55;;;;;;;20.00;10.03;;;;;;;4.94;80.37;100578.94;8475239;33;20245;-70
2021/01/26 21:44:58;;;;;;;23.27;10.57;;;;;;;4.90;79.68;100586.16;8500767;33;20462;-70
2021/01/26 21:50:00;;;;;;;20.23;10.47;;;;;;;5.10;80.23;100590.66;8531657;33;20421;-70
2021/01/26 21:55:05;;;;;;;25.33;11.47;;;;;;;5.17;79.51;100584.19;8536127;33;20227;-69
2021/01/26 22:00:11;;;;;;;21.63;12.50;;;;;;;5.16;80.05;100589.56;8535397;33;20419;-70
2021/01/26 22:05:19;;;;;;;22.42;11.45;;;;;;;5.21;79.50;100590.22;8535194;33;21454;-70
2021/01/26 22:10:27;;;;;;;27.17;12.60;;;;;;;5.08;79.86;100593.38;8535360;33;20460;-71
2021/01/26 22:15:32;;;;;;;24.03;11.50;;;;;;;5.02;79.50;100595.41;8536042;33;21834;-70
2021/01/26 22:20:37;;;;;;;26.80;12.40;;;;;;;5.05;79.64;100590.00;8535281;33;20210;-71
2021/01/26 22:25:44;;;;;;;44.10;17.60;;;;;;;5.19;79.29;100585.00;8534379;33;20411;-70
2021/01/26 22:30:47;;;;;;;25.87;12.97;;;;;;;5.29;79.27;100580.16;8534567;33;20429;-72
2021/01/26 22:35:50;;;;;;;31.37;14.57;;;;;;;5.28;79.41;100574.00;8531942;33;20186;-71
2021/01/26 22:40:53;;;;;;;31.17;14.60;;;;;;;5.25;78.84;100581.22;8517800;33;20437;-71
2021/01/26 22:45:55;;;;;;;28.57;13.37;;;;;;;5.08;78.82;100569.53;8515376;33;20160;-71
2021/01/26 22:50:58;;;;;;;34.33;14.80;;;;;;;5.09;79.20;100567.75;8541558;33;20428;-70
2021/01/26 22:56:01;;;;;;;33.67;15.77;;;;;;;5.00;78.90;100565.50;8533551;33;20431;-71
2021/01/26 23:01:07;;;;;;;31.90;16.43;;;;;;;5.00;78.62;100554.91;8530942;33;20140;-71
2021/01/26 23:06:10;;;;;;;34.23;15.47;;;;;;;5.03;78.51;100552.97;8533054;33;20581;-71
2021/01/26 23:11:14;;;;;;;29.23;16.03;;;;;;;5.01;78.80;100548.66;8525256;33;20537;-71
2021/01/26 23:16:16;;;;;;;31.63;16.77;;;;;;;5.04;78.15;100545.88;8512984;33;20438;-71
2021/01/26 23:21:19;;;;;;;30.70;16.97;;;;;;;4.92;78.63;100539.31;8464440;33;20464;-71
2021/01/26 23:26:26;;;;;;;33.93;16.43;;;;;;;4.92;78.61;100522.56;8463442;33;20371;-71
2021/01/26 23:31:28;;;;;;;36.00;16.70;;;;;;;4.91;78.43;100519.06;8474766;33;20141;-70
2021/01/26 23:36:31;;;;;;;30.17;16.27;;;;;;;4.96;78.63;100524.16;8475059;33;20287;-71
2021/01/26 23:41:35;;;;;;;37.42;15.93;;;;;;;4.99;78.59;100522.25;8472680;33;20420;-72
2021/01/26 23:46:37;;;;;;;33.03;16.27;;;;;;;4.90;78.09;100518.19;8478092;33;20448;-71